sensor_id;sensor_type;location;lat;lon;timestamp;pressure;altitude;pressure_sealevel;temperature;humidity
70198;BME280;57582;-34.876;138.628;2023-02-21T00:00:50;101518;;;29.83;32.04
70198;BME280;57582;-34.876;138.628;2023-02-21T00:03:50;101522;;;29.69;32.95
70198;BME280;57582;-34.876;138.628;2023-02-21T00:06:50;101522;;;29.97;32.17
70198;BME280;57582;-34.876;138.628;2023-02-21T00:09:50;101512;;;30.37;32.16
70198;BME280;57582;-34.876;138.628;2023-02-21T00:12:52;101517;;;30.67;31.07
70198;BME280;57582;-34.876;138.628;2023-02-21T00:15:50;101503;;;30.38;30.62
70198;BME280;57582;-34.876;138.628;2023-02-21T00:18:50;101510;;;30.22;30.92
70198;BME280;57582;-34.876;138.628;2023-02-21T00:21:50;101508;;;29.77;30.88
70198;BME280;57582;-34.876;138.628;2023-02-21T00:24:50;101503;;;30.23;31.24
70198;BME280;57582;-34.876;138.628;2023-02-21T00:27:50;101506;;;30.57;30.01
70198;BME280;57582;-34.876;138.628;2023-02-21T00:30:50;101511;;;30.40;29.61
70198;BME280;57582;-34.876;138.628;2023-02-21T00:33:50;101498;;;30.32;29.43
70198;BME280;57582;-34.876;138.628;2023-02-21T00:36:51;101502;;;30.41;29.27
70198;BME280;57582;-34.876;138.628;2023-02-21T00:39:50;101492;;;30.78;28.89
70198;BME280;57582;-34.876;138.628;2023-02-21T00:42:50;101491;;;30.83;28.16
70198;BME280;57582;-34.876;138.628;2023-02-21T00:45:50;101481;;;30.80;28.49
70198;BME280;57582;-34.876;138.628;2023-02-21T00:48:50;101481;;;30.80;28.64
70198;BME280;57582;-34.876;138.628;2023-02-21T00:51:50;101483;;;30.70;28.73
70198;BME280;57582;-34.876;138.628;2023-02-21T00:54:50;101488;;;30.73;29.39
70198;BME280;57582;-34.876;138.628;2023-02-21T00:57:50;101480;;;30.78;29.39
70198;BME280;57582;-34.876;138.628;2023-02-21T01:00:50;101495;;;30.70;29.01
70198;BME280;57582;-34.876;138.628;2023-02-21T01:03:50;101486;;;30.92;28.19
70198;BME280;57582;-34.876;138.628;2023-02-21T01:06:50;101484;;;30.97;28.45
70198;BME280;57582;-34.876;138.628;2023-02-21T01:09:50;101482;;;31.35;27.73
70198;BME280;57582;-34.876;138.628;2023-02-21T01:12:50;101485;;;31.27;27.54
70198;BME280;57582;-34.876;138.628;2023-02-21T01:15:50;101494;;;31.10;27.64
70198;BME280;57582;-34.876;138.628;2023-02-21T01:18:50;101480;;;31.42;27.23
70198;BME280;57582;-34.876;138.628;2023-02-21T01:21:50;101464;;;31.56;27.22
70198;BME280;57582;-34.876;138.628;2023-02-21T01:24:50;101479;;;31.86;27.16
70198;BME280;57582;-34.876;138.628;2023-02-21T01:27:50;101476;;;32.10;27.38
70198;BME280;57582;-34.876;138.628;2023-02-21T01:30:50;101477;;;32.26;25.76
70198;BME280;57582;-34.876;138.628;2023-02-21T01:33:50;101488;;;32.23;25.94
70198;BME280;57582;-34.876;138.628;2023-02-21T01:36:50;101488;;;32.65;25.88
70198;BME280;57582;-34.876;138.628;2023-02-21T01:39:50;101478;;;31.79;25.02
70198;BME280;57582;-34.876;138.628;2023-02-21T01:42:50;101489;;;32.11;25.47
70198;BME280;57582;-34.876;138.628;2023-02-21T01:45:50;101474;;;32.57;25.47
70198;BME280;57582;-34.876;138.628;2023-02-21T01:48:51;101468;;;32.85;24.10
70198;BME280;57582;-34.876;138.628;2023-02-21T01:51:50;101469;;;32.67;24.68
70198;BME280;57582;-34.876;138.628;2023-02-21T01:54:51;101466;;;32.49;24.52
70198;BME280;57582;-34.876;138.628;2023-02-21T01:57:50;101457;;;32.43;24.32
70198;BME280;57582;-34.876;138.628;2023-02-21T02:00:50;101456;;;32.62;24.49
70198;BME280;57582;-34.876;138.628;2023-02-21T02:03:50;101458;;;32.70;25.09
70198;BME280;57582;-34.876;138.628;2023-02-21T02:06:50;101457;;;32.99;24.23
70198;BME280;57582;-34.876;138.628;2023-02-21T02:09:50;101464;;;33.39;23.30
70198;BME280;57582;-34.876;138.628;2023-02-21T02:34:01;101467;;;33.32;23.09
70198;BME280;57582;-34.876;138.628;2023-02-21T02:36:52;101464;;;33.68;23.38
70198;BME280;57582;-34.876;138.628;2023-02-21T02:39:52;101462;;;34.07;23.55
70198;BME280;57582;-34.876;138.628;2023-02-21T02:45:55;101474;;;34.43;22.10
70198;BME280;57582;-34.876;138.628;2023-02-21T02:51:50;101472;;;34.05;22.34
70198;BME280;57582;-34.876;138.628;2023-02-21T02:54:59;101466;;;33.94;24.41
70198;BME280;57582;-34.876;138.628;2023-02-21T02:57:50;101471;;;34.30;22.96
70198;BME280;57582;-34.876;138.628;2023-02-21T03:01:04;101464;;;34.54;22.76
70198;BME280;57582;-34.876;138.628;2023-02-21T03:04:03;101468;;;34.29;22.64
70198;BME280;57582;-34.876;138.628;2023-02-21T03:09:56;101461;;;34.21;24.47
70198;BME280;57582;-34.876;138.628;2023-02-21T03:12:54;101452;;;34.23;23.15
70198;BME280;57582;-34.876;138.628;2023-02-21T03:15:51;101431;;;34.68;24.22
70198;BME280;57582;-34.876;138.628;2023-02-21T03:19:06;101426;;;35.06;22.55
70198;BME280;57582;-34.876;138.628;2023-02-21T03:21:52;101436;;;34.00;22.74
70198;BME280;57582;-34.876;138.628;2023-02-21T03:24:50;101426;;;34.00;22.85
70198;BME280;57582;-34.876;138.628;2023-02-21T03:27:50;101411;;;33.68;23.30
70198;BME280;57582;-34.876;138.628;2023-02-21T03:30:51;101405;;;34.10;23.90
70198;BME280;57582;-34.876;138.628;2023-02-21T03:33:50;101401;;;34.29;22.60
70198;BME280;57582;-34.876;138.628;2023-02-21T03:36:50;101399;;;34.21;22.71
70198;BME280;57582;-34.876;138.628;2023-02-21T03:39:50;101388;;;33.98;22.92
70198;BME280;57582;-34.876;138.628;2023-02-21T03:42:51;101392;;;34.13;24.34
70198;BME280;57582;-34.876;138.628;2023-02-21T03:45:50;101394;;;34.30;22.89
70198;BME280;57582;-34.876;138.628;2023-02-21T03:48:50;101391;;;34.05;23.00
70198;BME280;57582;-34.876;138.628;2023-02-21T03:51:50;101388;;;34.27;23.30
70198;BME280;57582;-34.876;138.628;2023-02-21T03:54:50;101381;;;34.49;22.98
70198;BME280;57582;-34.876;138.628;2023-02-21T03:57:50;101391;;;34.91;23.50
70198;BME280;57582;-34.876;138.628;2023-02-21T04:00:50;101383;;;34.66;22.03
70198;BME280;57582;-34.876;138.628;2023-02-21T04:03:50;101383;;;35.00;21.96
70198;BME280;57582;-34.876;138.628;2023-02-21T04:06:54;101384;;;35.36;22.22
70198;BME280;57582;-34.876;138.628;2023-02-21T04:09:50;101372;;;35.34;21.01
70198;BME280;57582;-34.876;138.628;2023-02-21T04:12:50;101366;;;35.25;21.13
70198;BME280;57582;-34.876;138.628;2023-02-21T04:15:50;101363;;;35.32;20.47
70198;BME280;57582;-34.876;138.628;2023-02-21T04:18:50;101376;;;35.49;20.47
70198;BME280;57582;-34.876;138.628;2023-02-21T04:21:50;101367;;;34.46;21.38
70198;BME280;57582;-34.876;138.628;2023-02-21T04:24:51;101356;;;34.54;21.35
70198;BME280;57582;-34.876;138.628;2023-02-21T04:27:50;101346;;;34.88;21.51
70198;BME280;57582;-34.876;138.628;2023-02-21T04:30:50;101345;;;35.38;20.76
70198;BME280;57582;-34.876;138.628;2023-02-21T04:33:50;101343;;;35.40;20.42
70198;BME280;57582;-34.876;138.628;2023-02-21T04:36:50;101330;;;35.70;20.59
70198;BME280;57582;-34.876;138.628;2023-02-21T04:39:50;101337;;;35.74;20.41
70198;BME280;57582;-34.876;138.628;2023-02-21T04:42:50;101340;;;35.64;19.98
70198;BME280;57582;-34.876;138.628;2023-02-21T04:45:50;101324;;;35.29;21.24
70198;BME280;57582;-34.876;138.628;2023-02-21T04:48:51;101333;;;35.55;21.21
70198;BME280;57582;-34.876;138.628;2023-02-21T04:51:50;101321;;;35.88;21.52
70198;BME280;57582;-34.876;138.628;2023-02-21T04:54:50;101317;;;35.74;20.06
70198;BME280;57582;-34.876;138.628;2023-02-21T04:57:50;101322;;;35.84;21.20
70198;BME280;57582;-34.876;138.628;2023-02-21T05:00:50;101314;;;36.03;20.18
70198;BME280;57582;-34.876;138.628;2023-02-21T05:03:50;101311;;;36.37;20.45
70198;BME280;57582;-34.876;138.628;2023-02-21T05:06:50;101305;;;36.10;19.99
70198;BME280;57582;-34.876;138.628;2023-02-21T05:09:50;101304;;;36.41;19.46
70198;BME280;57582;-34.876;138.628;2023-02-21T05:12:50;101308;;;36.27;19.81
70198;BME280;57582;-34.876;138.628;2023-02-21T05:15:50;101304;;;35.95;20.15
70198;BME280;57582;-34.876;138.628;2023-02-21T05:18:51;101300;;;35.96;19.88
70198;BME280;57582;-34.876;138.628;2023-02-21T05:21:50;101309;;;35.74;20.51
70198;BME280;57582;-34.876;138.628;2023-02-21T05:24:50;101296;;;35.65;20.47
70198;BME280;57582;-34.876;138.628;2023-02-21T05:27:51;101301;;;35.63;20.26
70198;BME280;57582;-34.876;138.628;2023-02-21T05:30:51;101301;;;35.88;20.14
70198;BME280;57582;-34.876;138.628;2023-02-21T05:33:50;101304;;;36.09;20.39
70198;BME280;57582;-34.876;138.628;2023-02-21T05:36:51;101304;;;36.21;19.83
70198;BME280;57582;-34.876;138.628;2023-02-21T05:39:50;101300;;;36.25;20.22
70198;BME280;57582;-34.876;138.628;2023-02-21T05:42:50;101298;;;36.45;21.06
70198;BME280;57582;-34.876;138.628;2023-02-21T05:45:50;101298;;;36.32;20.93
70198;BME280;57582;-34.876;138.628;2023-02-21T05:48:51;101304;;;36.38;22.18
70198;BME280;57582;-34.876;138.628;2023-02-21T05:51:50;101294;;;36.21;21.71
70198;BME280;57582;-34.876;138.628;2023-02-21T05:54:51;101303;;;35.64;22.75
70198;BME280;57582;-34.876;138.628;2023-02-21T05:57:50;101301;;;35.32;22.64
70198;BME280;57582;-34.876;138.628;2023-02-21T06:00:51;101304;;;35.32;23.26
70198;BME280;57582;-34.876;138.628;2023-02-21T06:03:50;101295;;;35.16;25.09
70198;BME280;57582;-34.876;138.628;2023-02-21T06:06:50;101303;;;35.31;25.36
70198;BME280;57582;-34.876;138.628;2023-02-21T06:09:50;101298;;;35.61;25.32
70198;BME280;57582;-34.876;138.628;2023-02-21T06:12:50;101295;;;35.69;24.80
70198;BME280;57582;-34.876;138.628;2023-02-21T06:15:50;101291;;;35.70;25.08
70198;BME280;57582;-34.876;138.628;2023-02-21T06:18:51;101291;;;35.43;24.90
70198;BME280;57582;-34.876;138.628;2023-02-21T06:21:50;101289;;;35.52;24.96
70198;BME280;57582;-34.876;138.628;2023-02-21T06:24:50;101286;;;35.54;25.19
70198;BME280;57582;-34.876;138.628;2023-02-21T06:27:50;101285;;;35.61;24.76
70198;BME280;57582;-34.876;138.628;2023-02-21T06:30:50;101284;;;35.35;25.15
70198;BME280;57582;-34.876;138.628;2023-02-21T06:33:50;101292;;;35.64;25.25
70198;BME280;57582;-34.876;138.628;2023-02-21T06:36:51;101297;;;35.77;25.08
70198;BME280;57582;-34.876;138.628;2023-02-21T06:39:50;101297;;;36.01;24.73
70198;BME280;57582;-34.876;138.628;2023-02-21T06:42:50;101289;;;35.83;24.87
70198;BME280;57582;-34.876;138.628;2023-02-21T06:45:50;101290;;;35.90;25.19
70198;BME280;57582;-34.876;138.628;2023-02-21T06:48:51;101295;;;35.42;25.48
70198;BME280;57582;-34.876;138.628;2023-02-21T06:51:50;101293;;;35.03;25.96
70198;BME280;57582;-34.876;138.628;2023-02-21T06:54:50;101299;;;34.87;26.12
70198;BME280;57582;-34.876;138.628;2023-02-21T06:57:50;101296;;;34.57;26.35
70198;BME280;57582;-34.876;138.628;2023-02-21T07:00:52;101296;;;34.62;26.72
70198;BME280;57582;-34.876;138.628;2023-02-21T07:03:50;101303;;;34.41;26.94
70198;BME280;57582;-34.876;138.628;2023-02-21T07:06:51;101301;;;34.60;27.23
70198;BME280;57582;-34.876;138.628;2023-02-21T07:09:50;101306;;;34.57;26.03
70198;BME280;57582;-34.876;138.628;2023-02-21T07:12:51;101301;;;34.24;26.51
70198;BME280;57582;-34.876;138.628;2023-02-21T07:15:50;101299;;;33.96;26.82
70198;BME280;57582;-34.876;138.628;2023-02-21T07:18:51;101293;;;33.84;26.97
70198;BME280;57582;-34.876;138.628;2023-02-21T07:21:50;101304;;;33.63;27.29
70198;BME280;57582;-34.876;138.628;2023-02-21T07:24:52;101305;;;33.40;27.31
70198;BME280;57582;-34.876;138.628;2023-02-21T07:27:50;101314;;;33.32;27.82
70198;BME280;57582;-34.876;138.628;2023-02-21T07:30:51;101306;;;33.72;27.68
70198;BME280;57582;-34.876;138.628;2023-02-21T07:33:50;101299;;;33.94;26.81
70198;BME280;57582;-34.876;138.628;2023-02-21T07:36:51;101293;;;34.04;26.70
70198;BME280;57582;-34.876;138.628;2023-02-21T07:39:50;101304;;;34.30;26.71
70198;BME280;57582;-34.876;138.628;2023-02-21T07:42:51;101301;;;34.33;26.76
70198;BME280;57582;-34.876;138.628;2023-02-21T07:45:50;101300;;;34.39;26.41
70198;BME280;57582;-34.876;138.628;2023-02-21T07:48:51;101302;;;33.96;26.40
70198;BME280;57582;-34.876;138.628;2023-02-21T07:51:50;101310;;;33.81;26.83
70198;BME280;57582;-34.876;138.628;2023-02-21T07:54:51;101321;;;33.34;27.52
70198;BME280;57582;-34.876;138.628;2023-02-21T07:57:50;101319;;;33.27;27.81
70198;BME280;57582;-34.876;138.628;2023-02-21T08:00:51;101325;;;33.42;28.12
70198;BME280;57582;-34.876;138.628;2023-02-21T08:03:50;101330;;;33.50;27.66
70198;BME280;57582;-34.876;138.628;2023-02-21T08:06:51;101336;;;33.49;27.47
70198;BME280;57582;-34.876;138.628;2023-02-21T08:09:50;101335;;;33.50;27.44
70198;BME280;57582;-34.876;138.628;2023-02-21T08:12:51;101328;;;33.59;27.39
70198;BME280;57582;-34.876;138.628;2023-02-21T08:15:50;101330;;;33.52;27.27
70198;BME280;57582;-34.876;138.628;2023-02-21T08:18:51;101333;;;33.54;27.50
70198;BME280;57582;-34.876;138.628;2023-02-21T08:21:50;101333;;;33.33;28.01
70198;BME280;57582;-34.876;138.628;2023-02-21T08:24:51;101335;;;33.38;27.96
70198;BME280;57582;-34.876;138.628;2023-02-21T08:27:50;101338;;;33.20;28.16
70198;BME280;57582;-34.876;138.628;2023-02-21T08:30:51;101321;;;33.08;28.59
70198;BME280;57582;-34.876;138.628;2023-02-21T08:33:50;101327;;;33.16;28.27
70198;BME280;57582;-34.876;138.628;2023-02-21T08:36:51;101331;;;33.09;28.76
70198;BME280;57582;-34.876;138.628;2023-02-21T08:39:51;101321;;;32.97;28.71
70198;BME280;57582;-34.876;138.628;2023-02-21T08:42:52;101330;;;32.64;28.82
70198;BME280;57582;-34.876;138.628;2023-02-21T08:45:50;101329;;;32.50;29.23
70198;BME280;57582;-34.876;138.628;2023-02-21T08:48:51;101332;;;32.44;29.24
70198;BME280;57582;-34.876;138.628;2023-02-21T08:51:50;101336;;;32.17;29.53
70198;BME280;57582;-34.876;138.628;2023-02-21T08:54:51;101331;;;32.16;29.58
70198;BME280;57582;-34.876;138.628;2023-02-21T08:57:51;101324;;;32.03;29.94
70198;BME280;57582;-34.876;138.628;2023-02-21T09:00:52;101333;;;31.64;30.06
70198;BME280;57582;-34.876;138.628;2023-02-21T09:03:50;101324;;;31.42;30.50
70198;BME280;57582;-34.876;138.628;2023-02-21T09:06:51;101341;;;31.29;30.86
70198;BME280;57582;-34.876;138.628;2023-02-21T09:09:50;101333;;;31.20;31.05
70198;BME280;57582;-34.876;138.628;2023-02-21T09:12:51;101342;;;31.20;31.04
70198;BME280;57582;-34.876;138.628;2023-02-21T09:15:51;101334;;;30.97;31.57
70198;BME280;57582;-34.876;138.628;2023-02-21T09:18:55;101330;;;30.91;31.66
70198;BME280;57582;-34.876;138.628;2023-02-21T09:21:50;101327;;;30.93;31.64
70198;BME280;57582;-34.876;138.628;2023-02-21T09:24:51;101332;;;30.93;31.72
70198;BME280;57582;-34.876;138.628;2023-02-21T09:27:51;101332;;;30.83;31.58
70198;BME280;57582;-34.876;138.628;2023-02-21T09:30:52;101346;;;30.71;31.37
70198;BME280;57582;-34.876;138.628;2023-02-21T09:33:51;101340;;;30.64;31.35
70198;BME280;57582;-34.876;138.628;2023-02-21T09:36:51;101337;;;30.42;31.84
70198;BME280;57582;-34.876;138.628;2023-02-21T09:39:51;101341;;;29.94;32.17
70198;BME280;57582;-34.876;138.628;2023-02-21T09:42:52;101341;;;30.00;32.22
70198;BME280;57582;-34.876;138.628;2023-02-21T09:45:51;101338;;;30.06;31.90
70198;BME280;57582;-34.876;138.628;2023-02-21T09:48:51;101338;;;30.11;31.79
70198;BME280;57582;-34.876;138.628;2023-02-21T09:51:51;101349;;;29.88;31.91
70198;BME280;57582;-34.876;138.628;2023-02-21T09:54:53;101346;;;29.93;31.70
70198;BME280;57582;-34.876;138.628;2023-02-21T09:57:51;101349;;;29.68;31.91
70198;BME280;57582;-34.876;138.628;2023-02-21T10:00:51;101341;;;29.44;32.39
70198;BME280;57582;-34.876;138.628;2023-02-21T10:21:51;101362;;;28.77;33.50
70198;BME280;57582;-34.876;138.628;2023-02-21T10:24:51;101368;;;28.86;33.48
70198;BME280;57582;-34.876;138.628;2023-02-21T10:27:51;101370;;;28.89;33.32
70198;BME280;57582;-34.876;138.628;2023-02-21T10:30:53;101378;;;28.75;33.23
70198;BME280;57582;-34.876;138.628;2023-02-21T10:33:51;101378;;;28.78;33.30
70198;BME280;57582;-34.876;138.628;2023-02-21T10:36:52;101385;;;28.76;33.24
70198;BME280;57582;-34.876;138.628;2023-02-21T10:39:53;101392;;;28.77;33.17
70198;BME280;57582;-34.876;138.628;2023-02-21T10:42:53;101392;;;28.68;33.08
70198;BME280;57582;-34.876;138.628;2023-02-21T10:48:52;101390;;;28.61;33.29
70198;BME280;57582;-34.876;138.628;2023-02-21T10:55:19;101399;;;28.54;33.20
70198;BME280;57582;-34.876;138.628;2023-02-21T10:57:58;101399;;;28.47;33.32
70198;BME280;57582;-34.876;138.628;2023-02-21T11:00:51;101398;;;28.51;33.34
70198;BME280;57582;-34.876;138.628;2023-02-21T11:03:53;101393;;;28.49;33.19
70198;BME280;57582;-34.876;138.628;2023-02-21T11:06:53;101399;;;28.64;32.75
70198;BME280;57582;-34.876;138.628;2023-02-21T11:09:51;101390;;;28.59;32.70
70198;BME280;57582;-34.876;138.628;2023-02-21T11:13:14;101405;;;28.68;32.55
70198;BME280;57582;-34.876;138.628;2023-02-21T11:16:06;101394;;;28.85;32.32
70198;BME280;57582;-34.876;138.628;2023-02-21T11:19:10;101395;;;28.78;32.21
70198;BME280;57582;-34.876;138.628;2023-02-21T11:21:54;101399;;;28.59;32.27
70198;BME280;57582;-34.876;138.628;2023-02-21T11:24:57;101399;;;28.74;32.19
70198;BME280;57582;-34.876;138.628;2023-02-21T11:31:10;101411;;;28.68;32.38
70198;BME280;57582;-34.876;138.628;2023-02-21T11:33:54;101412;;;28.59;32.36
70198;BME280;57582;-34.876;138.628;2023-02-21T11:36:51;101416;;;28.39;32.63
70198;BME280;57582;-34.876;138.628;2023-02-21T11:39:51;101416;;;28.48;32.50
70198;BME280;57582;-34.876;138.628;2023-02-21T11:43:07;101406;;;28.40;32.63
70198;BME280;57582;-34.876;138.628;2023-02-21T11:52:01;101400;;;28.35;32.64
70198;BME280;57582;-34.876;138.628;2023-02-21T11:54:51;101403;;;28.30;32.55
70198;BME280;57582;-34.876;138.628;2023-02-21T12:01:09;101390;;;28.19;32.60
70198;BME280;57582;-34.876;138.628;2023-02-21T12:03:56;101384;;;28.20;32.54
70198;BME280;57582;-34.876;138.628;2023-02-21T12:06:53;101385;;;28.21;32.48
70198;BME280;57582;-34.876;138.628;2023-02-21T12:09:53;101389;;;28.15;32.58
70198;BME280;57582;-34.876;138.628;2023-02-21T12:12:54;101384;;;28.15;32.59
70198;BME280;57582;-34.876;138.628;2023-02-21T12:24:59;101386;;;28.25;32.38
70198;BME280;57582;-34.876;138.628;2023-02-21T12:31:03;101392;;;28.40;32.17
70198;BME280;57582;-34.876;138.628;2023-02-21T12:42:56;101392;;;28.35;32.10
70198;BME280;57582;-34.876;138.628;2023-02-21T13:00:55;101387;;;27.97;31.56
70198;BME280;57582;-34.876;138.628;2023-02-21T13:06:57;101370;;;27.88;31.29
70198;BME280;57582;-34.876;138.628;2023-02-21T13:09:54;101379;;;27.88;31.27
70198;BME280;57582;-34.876;138.628;2023-02-21T13:15:51;101371;;;27.84;30.68
70198;BME280;57582;-34.876;138.628;2023-02-21T13:18:53;101377;;;27.81;30.55
70198;BME280;57582;-34.876;138.628;2023-02-21T13:25:13;101370;;;27.92;30.64
70198;BME280;57582;-34.876;138.628;2023-02-21T13:27:53;101366;;;27.89;30.64
70198;BME280;57582;-34.876;138.628;2023-02-21T13:30:52;101358;;;27.76;30.75
70198;BME280;57582;-34.876;138.628;2023-02-21T13:33:52;101365;;;27.77;30.70
70198;BME280;57582;-34.876;138.628;2023-02-21T13:36:51;101362;;;27.69;30.96
70198;BME280;57582;-34.876;138.628;2023-02-21T13:39:55;101357;;;27.67;31.18
70198;BME280;57582;-34.876;138.628;2023-02-21T13:43:17;101359;;;27.67;31.13
70198;BME280;57582;-34.876;138.628;2023-02-21T13:45:51;101368;;;27.65;31.37
70198;BME280;57582;-34.876;138.628;2023-02-21T13:51:51;101366;;;27.64;31.76
70198;BME280;57582;-34.876;138.628;2023-02-21T14:00:53;101355;;;27.47;32.69
70198;BME280;57582;-34.876;138.628;2023-02-21T14:03:51;101356;;;27.62;32.71
70198;BME280;57582;-34.876;138.628;2023-02-21T14:06:54;101359;;;27.67;32.62
70198;BME280;57582;-34.876;138.628;2023-02-21T14:09:51;101353;;;27.56;33.02
70198;BME280;57582;-34.876;138.628;2023-02-21T14:12:53;101352;;;27.52;32.94
70198;BME280;57582;-34.876;138.628;2023-02-21T14:15:55;101360;;;27.45;33.20
70198;BME280;57582;-34.876;138.628;2023-02-21T14:19:19;101353;;;27.41;33.38
70198;BME280;57582;-34.876;138.628;2023-02-21T14:21:55;101354;;;27.45;33.32
70198;BME280;57582;-34.876;138.628;2023-02-21T14:25:03;101365;;;27.42;33.36
70198;BME280;57582;-34.876;138.628;2023-02-21T14:27:51;101354;;;27.39;33.38
70198;BME280;57582;-34.876;138.628;2023-02-21T14:31:00;101357;;;27.28;33.42
70198;BME280;57582;-34.876;138.628;2023-02-21T14:33:51;101345;;;27.37;33.26
70198;BME280;57582;-34.876;138.628;2023-02-21T14:36:53;101339;;;27.41;33.19
70198;BME280;57582;-34.876;138.628;2023-02-21T14:39:52;101339;;;27.49;32.88
70198;BME280;57582;-34.876;138.628;2023-02-21T14:45:59;101325;;;27.54;32.74
70198;BME280;57582;-34.876;138.628;2023-02-21T14:52:02;101322;;;27.71;32.30
70198;BME280;57582;-34.876;138.628;2023-02-21T14:57:56;101328;;;27.68;32.53
70198;BME280;57582;-34.876;138.628;2023-02-21T15:03:55;101314;;;27.58;32.62
70198;BME280;57582;-34.876;138.628;2023-02-21T15:06:55;101318;;;27.47;32.87
70198;BME280;57582;-34.876;138.628;2023-02-21T15:12:53;101309;;;27.38;32.91
70198;BME280;57582;-34.876;138.628;2023-02-21T15:15:59;101314;;;27.29;33.00
70198;BME280;57582;-34.876;138.628;2023-02-21T15:18:59;101302;;;27.24;33.13
70198;BME280;57582;-34.876;138.628;2023-02-21T15:22:22;101295;;;27.11;33.22
70198;BME280;57582;-34.876;138.628;2023-02-21T15:30:56;101276;;;27.01;33.07
70198;BME280;57582;-34.876;138.628;2023-02-21T15:33:51;101272;;;26.97;33.03
70198;BME280;57582;-34.876;138.628;2023-02-21T15:36:57;101281;;;26.93;32.96
70198;BME280;57582;-34.876;138.628;2023-02-21T15:39:52;101266;;;27.02;32.78
70198;BME280;57582;-34.876;138.628;2023-02-21T15:42:52;101269;;;27.04;32.80
70198;BME280;57582;-34.876;138.628;2023-02-21T15:45:51;101262;;;26.91;32.80
70198;BME280;57582;-34.876;138.628;2023-02-21T15:48:52;101249;;;26.95;32.74
70198;BME280;57582;-34.876;138.628;2023-02-21T15:51:51;101255;;;26.93;32.79
70198;BME280;57582;-34.876;138.628;2023-02-21T15:55:11;101245;;;26.87;32.83
70198;BME280;57582;-34.876;138.628;2023-02-21T16:01:09;101246;;;26.72;32.83
70198;BME280;57582;-34.876;138.628;2023-02-21T16:03:51;101233;;;26.70;32.90
70198;BME280;57582;-34.876;138.628;2023-02-21T16:06:52;101229;;;26.61;32.75
70198;BME280;57582;-34.876;138.628;2023-02-21T16:09:56;101218;;;26.55;32.74
70198;BME280;57582;-34.876;138.628;2023-02-21T16:12:54;101208;;;26.44;32.65
70198;BME280;57582;-34.876;138.628;2023-02-21T16:15:51;101210;;;26.40;32.51
70198;BME280;57582;-34.876;138.628;2023-02-21T16:18:54;101206;;;26.37;32.55
70198;BME280;57582;-34.876;138.628;2023-02-21T16:22:08;101202;;;26.28;32.50
70198;BME280;57582;-34.876;138.628;2023-02-21T16:27:52;101177;;;26.23;32.39
70198;BME280;57582;-34.876;138.628;2023-02-21T16:30:52;101172;;;26.23;32.53
70198;BME280;57582;-34.876;138.628;2023-02-21T16:33:51;101174;;;26.08;32.67
70198;BME280;57582;-34.876;138.628;2023-02-21T16:36:59;101158;;;26.01;32.64
70198;BME280;57582;-34.876;138.628;2023-02-21T16:39:52;101166;;;26.01;32.73
70198;BME280;57582;-34.876;138.628;2023-02-21T16:42:53;101148;;;26.09;32.58
70198;BME280;57582;-34.876;138.628;2023-02-21T16:45:52;101139;;;25.98;32.63
70198;BME280;57582;-34.876;138.628;2023-02-21T16:48:52;101133;;;25.93;32.77
70198;BME280;57582;-34.876;138.628;2023-02-21T16:51:51;101129;;;25.91;32.81
70198;BME280;57582;-34.876;138.628;2023-02-21T16:54:53;101136;;;25.87;32.77
70198;BME280;57582;-34.876;138.628;2023-02-21T16:57:52;101143;;;25.86;32.76
70198;BME280;57582;-34.876;138.628;2023-02-21T17:00:53;101127;;;25.78;32.82
70198;BME280;57582;-34.876;138.628;2023-02-21T17:03:51;101131;;;25.65;32.83
70198;BME280;57582;-34.876;138.628;2023-02-21T17:06:54;101136;;;25.73;32.44
70198;BME280;57582;-34.876;138.628;2023-02-21T17:09:51;101136;;;25.66;32.17
70198;BME280;57582;-34.876;138.628;2023-02-21T17:12:52;101139;;;25.63;32.16
70198;BME280;57582;-34.876;138.628;2023-02-21T17:15:51;101129;;;25.57;32.22
70198;BME280;57582;-34.876;138.628;2023-02-21T17:18:52;101127;;;25.54;32.00
70198;BME280;57582;-34.876;138.628;2023-02-21T17:21:51;101132;;;25.51;31.98
70198;BME280;57582;-34.876;138.628;2023-02-21T17:24:52;101137;;;25.62;31.82
70198;BME280;57582;-34.876;138.628;2023-02-21T17:27:51;101137;;;25.49;31.73
70198;BME280;57582;-34.876;138.628;2023-02-21T17:30:52;101136;;;25.52;31.57
70198;BME280;57582;-34.876;138.628;2023-02-21T17:33:51;101139;;;25.53;31.53
70198;BME280;57582;-34.876;138.628;2023-02-21T17:36:52;101133;;;25.48;31.32
70198;BME280;57582;-34.876;138.628;2023-02-21T17:39:52;101128;;;25.46;31.45
70198;BME280;57582;-34.876;138.628;2023-02-21T17:42:52;101130;;;25.51;31.34
70198;BME280;57582;-34.876;138.628;2023-02-21T17:45:51;101135;;;25.56;31.30
70198;BME280;57582;-34.876;138.628;2023-02-21T17:48:52;101146;;;25.67;31.06
70198;BME280;57582;-34.876;138.628;2023-02-21T17:51:51;101137;;;25.67;30.83
70198;BME280;57582;-34.876;138.628;2023-02-21T17:54:52;101141;;;25.71;30.82
70198;BME280;57582;-34.876;138.628;2023-02-21T17:57:51;101149;;;25.63;30.71
70198;BME280;57582;-34.876;138.628;2023-02-21T18:00:52;101152;;;25.78;30.92
70198;BME280;57582;-34.876;138.628;2023-02-21T18:03:51;101156;;;25.92;30.56
70198;BME280;57582;-34.876;138.628;2023-02-21T18:06:52;101148;;;26.09;30.33